sensor_id;sensor_type;location;lat;lon;timestamp;temperature;humidity
22765;DHT22;11549;50.852;3.816;2022-10-22T00:01:13;15.40;99.90
22765;DHT22;11549;50.852;3.816;2022-10-22T00:03:41;15.40;99.90
22765;DHT22;11549;50.852;3.816;2022-10-22T00:06:09;15.50;99.90
22765;DHT22;11549;50.852;3.816;2022-10-22T00:08:38;15.50;99.90
22765;DHT22;11549;50.852;3.816;2022-10-22T00:11:09;15.50;99.90
22765;DHT22;11549;50.852;3.816;2022-10-22T00:13:38;15.40;99.90
22765;DHT22;11549;50.852;3.816;2022-10-22T00:16:07;15.40;99.90
22765;DHT22;11549;50.852;3.816;2022-10-22T00:18:36;15.40;99.90
22765;DHT22;11549;50.852;3.816;2022-10-22T00:21:05;15.50;99.90
22765;DHT22;11549;50.852;3.816;2022-10-22T00:23:34;15.40;99.90
22765;DHT22;11549;50.852;3.816;2022-10-22T00:26:02;15.30;99.90
22765;DHT22;11549;50.852;3.816;2022-10-22T00:28:32;15.30;99.90
22765;DHT22;11549;50.852;3.816;2022-10-22T00:31:00;15.30;99.90
22765;DHT22;11549;50.852;3.816;2022-10-22T00:33:29;15.40;99.90
22765;DHT22;11549;50.852;3.816;2022-10-22T00:35:58;15.40;99.90
22765;DHT22;11549;50.852;3.816;2022-10-22T00:38:26;15.30;99.90
22765;DHT22;11549;50.852;3.816;2022-10-22T00:40:54;15.30;99.90
22765;DHT22;11549;50.852;3.816;2022-10-22T00:43:23;15.30;99.90
22765;DHT22;11549;50.852;3.816;2022-10-22T00:45:52;15.30;99.90
22765;DHT22;11549;50.852;3.816;2022-10-22T00:48:23;15.30;99.90
22765;DHT22;11549;50.852;3.816;2022-10-22T00:50:56;15.30;99.90
22765;DHT22;11549;50.852;3.816;2022-10-22T00:53:29;15.30;99.90
22765;DHT22;11549;50.852;3.816;2022-10-22T00:55:58;15.30;99.90
22765;DHT22;11549;50.852;3.816;2022-10-22T00:58:29;15.40;99.90
22765;DHT22;11549;50.852;3.816;2022-10-22T01:01:00;15.40;99.90
22765;DHT22;11549;50.852;3.816;2022-10-22T01:03:29;15.40;99.90
22765;DHT22;11549;50.852;3.816;2022-10-22T01:05:59;15.30;99.90
22765;DHT22;11549;50.852;3.816;2022-10-22T01:08:44;15.30;99.90
22765;DHT22;11549;50.852;3.816;2022-10-22T01:11:21;15.20;99.90
22765;DHT22;11549;50.852;3.816;2022-10-22T01:13:56;15.30;99.90
22765;DHT22;11549;50.852;3.816;2022-10-22T01:16:35;15.40;99.90
22765;DHT22;11549;50.852;3.816;2022-10-22T01:19:18;15.30;99.90
22765;DHT22;11549;50.852;3.816;2022-10-22T01:21:55;15.20;99.90
22765;DHT22;11549;50.852;3.816;2022-10-22T01:24:40;15.30;99.90
22765;DHT22;11549;50.852;3.816;2022-10-22T01:27:23;15.20;99.90
22765;DHT22;11549;50.852;3.816;2022-10-22T01:29:57;15.20;99.90
22765;DHT22;11549;50.852;3.816;2022-10-22T01:32:27;15.20;99.90
22765;DHT22;11549;50.852;3.816;2022-10-22T01:34:59;15.30;99.90
22765;DHT22;11549;50.852;3.816;2022-10-22T01:37:30;15.20;99.90
22765;DHT22;11549;50.852;3.816;2022-10-22T01:40:00;15.20;99.90
22765;DHT22;11549;50.852;3.816;2022-10-22T01:42:29;15.30;99.90
22765;DHT22;11549;50.852;3.816;2022-10-22T01:44:58;15.30;99.90
22765;DHT22;11549;50.852;3.816;2022-10-22T01:47:35;15.20;99.90
22765;DHT22;11549;50.852;3.816;2022-10-22T01:50:18;15.30;99.90
22765;DHT22;11549;50.852;3.816;2022-10-22T01:53:06;15.20;99.90
22765;DHT22;11549;50.852;3.816;2022-10-22T01:55:42;15.20;99.90
22765;DHT22;11549;50.852;3.816;2022-10-22T01:58:23;15.20;99.90
22765;DHT22;11549;50.852;3.816;2022-10-22T02:01:02;15.10;99.90
22765;DHT22;11549;50.852;3.816;2022-10-22T02:03:36;15.00;99.90
22765;DHT22;11549;50.852;3.816;2022-10-22T02:06:09;15.00;99.90
22765;DHT22;11549;50.852;3.816;2022-10-22T02:08:41;15.00;99.90
22765;DHT22;11549;50.852;3.816;2022-10-22T02:11:11;15.00;99.90
22765;DHT22;11549;50.852;3.816;2022-10-22T02:13:42;15.00;99.90
22765;DHT22;11549;50.852;3.816;2022-10-22T02:16:18;15.10;99.90
22765;DHT22;11549;50.852;3.816;2022-10-22T02:18:50;15.10;99.90
22765;DHT22;11549;50.852;3.816;2022-10-22T02:21:21;15.10;99.90
22765;DHT22;11549;50.852;3.816;2022-10-22T02:23:49;15.10;99.90
22765;DHT22;11549;50.852;3.816;2022-10-22T02:26:22;15.00;99.90
22765;DHT22;11549;50.852;3.816;2022-10-22T02:28:57;14.90;99.90
22765;DHT22;11549;50.852;3.816;2022-10-22T02:31:30;15.00;99.90
22765;DHT22;11549;50.852;3.816;2022-10-22T02:34:02;15.00;99.90
22765;DHT22;11549;50.852;3.816;2022-10-22T02:36:34;15.00;99.90
22765;DHT22;11549;50.852;3.816;2022-10-22T02:39:04;15.00;99.90
22765;DHT22;11549;50.852;3.816;2022-10-22T02:41:33;14.90;99.90
22765;DHT22;11549;50.852;3.816;2022-10-22T02:44:07;14.80;99.90
22765;DHT22;11549;50.852;3.816;2022-10-22T02:46:37;14.90;99.90
22765;DHT22;11549;50.852;3.816;2022-10-22T02:49:06;14.90;99.90
22765;DHT22;11549;50.852;3.816;2022-10-22T02:51:34;14.90;99.90
22765;DHT22;11549;50.852;3.816;2022-10-22T02:54:03;14.90;99.90
22765;DHT22;11549;50.852;3.816;2022-10-22T02:56:31;14.90;99.90
22765;DHT22;11549;50.852;3.816;2022-10-22T02:58:59;15.10;99.90
22765;DHT22;11549;50.852;3.816;2022-10-22T03:01:28;15.10;99.90
22765;DHT22;11549;50.852;3.816;2022-10-22T03:03:57;15.00;99.90
22765;DHT22;11549;50.852;3.816;2022-10-22T03:06:26;15.10;99.90
22765;DHT22;11549;50.852;3.816;2022-10-22T03:08:54;15.20;99.90
22765;DHT22;11549;50.852;3.816;2022-10-22T03:11:22;15.20;99.90
22765;DHT22;11549;50.852;3.816;2022-10-22T03:13:50;15.10;99.90
22765;DHT22;11549;50.852;3.816;2022-10-22T03:16:19;15.10;99.90
22765;DHT22;11549;50.852;3.816;2022-10-22T03:18:47;15.10;99.90
22765;DHT22;11549;50.852;3.816;2022-10-22T03:21:22;15.10;99.90
22765;DHT22;11549;50.852;3.816;2022-10-22T03:23:53;15.10;99.90
22765;DHT22;11549;50.852;3.816;2022-10-22T03:26:23;15.30;99.90
22765;DHT22;11549;50.852;3.816;2022-10-22T03:28:51;15.30;99.90
22765;DHT22;11549;50.852;3.816;2022-10-22T03:31:20;15.20;99.90
22765;DHT22;11549;50.852;3.816;2022-10-22T03:33:49;15.20;99.90
22765;DHT22;11549;50.852;3.816;2022-10-22T03:36:18;15.20;99.90
22765;DHT22;11549;50.852;3.816;2022-10-22T03:38:46;15.30;99.90
22765;DHT22;11549;50.852;3.816;2022-10-22T03:41:15;15.30;99.90
22765;DHT22;11549;50.852;3.816;2022-10-22T03:43:43;15.30;99.90
22765;DHT22;11549;50.852;3.816;2022-10-22T03:46:15;15.30;99.90
22765;DHT22;11549;50.852;3.816;2022-10-22T03:48:44;15.30;99.90
22765;DHT22;11549;50.852;3.816;2022-10-22T03:51:12;15.40;99.90
22765;DHT22;11549;50.852;3.816;2022-10-22T03:53:42;15.30;99.90
22765;DHT22;11549;50.852;3.816;2022-10-22T03:56:11;15.30;99.90
22765;DHT22;11549;50.852;3.816;2022-10-22T03:58:40;15.30;99.90
22765;DHT22;11549;50.852;3.816;2022-10-22T04:01:10;15.30;99.90
22765;DHT22;11549;50.852;3.816;2022-10-22T04:03:39;15.30;99.90
22765;DHT22;11549;50.852;3.816;2022-10-22T04:06:09;15.20;99.90
22765;DHT22;11549;50.852;3.816;2022-10-22T04:08:38;15.20;99.90
22765;DHT22;11549;50.852;3.816;2022-10-22T04:11:09;15.20;99.90
22765;DHT22;11549;50.852;3.816;2022-10-22T04:13:38;15.20;99.90
22765;DHT22;11549;50.852;3.816;2022-10-22T04:16:07;15.20;99.90
22765;DHT22;11549;50.852;3.816;2022-10-22T04:18:36;15.10;99.90
22765;DHT22;11549;50.852;3.816;2022-10-22T04:21:05;15.10;99.90
22765;DHT22;11549;50.852;3.816;2022-10-22T04:23:34;15.00;99.90
22765;DHT22;11549;50.852;3.816;2022-10-22T04:26:04;15.00;99.90
22765;DHT22;11549;50.852;3.816;2022-10-22T04:28:34;15.00;99.90
22765;DHT22;11549;50.852;3.816;2022-10-22T04:31:07;15.00;99.90
22765;DHT22;11549;50.852;3.816;2022-10-22T04:33:36;15.10;99.90
22765;DHT22;11549;50.852;3.816;2022-10-22T04:36:09;15.10;99.90
22765;DHT22;11549;50.852;3.816;2022-10-22T04:38:37;15.10;99.90
22765;DHT22;11549;50.852;3.816;2022-10-22T04:41:10;15.20;99.90
22765;DHT22;11549;50.852;3.816;2022-10-22T04:43:40;15.20;99.90
22765;DHT22;11549;50.852;3.816;2022-10-22T04:46:10;15.20;99.90
22765;DHT22;11549;50.852;3.816;2022-10-22T04:48:40;15.20;99.90
22765;DHT22;11549;50.852;3.816;2022-10-22T04:51:11;15.10;99.90
22765;DHT22;11549;50.852;3.816;2022-10-22T04:53:40;15.10;99.90
22765;DHT22;11549;50.852;3.816;2022-10-22T04:56:10;15.10;99.90
22765;DHT22;11549;50.852;3.816;2022-10-22T04:58:40;15.10;99.90
22765;DHT22;11549;50.852;3.816;2022-10-22T05:01:11;15.10;99.90
22765;DHT22;11549;50.852;3.816;2022-10-22T05:03:40;15.00;99.90
22765;DHT22;11549;50.852;3.816;2022-10-22T05:06:09;15.00;99.90
22765;DHT22;11549;50.852;3.816;2022-10-22T05:08:39;15.00;99.90
22765;DHT22;11549;50.852;3.816;2022-10-22T05:11:11;14.90;99.90
22765;DHT22;11549;50.852;3.816;2022-10-22T05:13:41;15.00;99.90
22765;DHT22;11549;50.852;3.816;2022-10-22T05:16:10;14.90;99.90
22765;DHT22;11549;50.852;3.816;2022-10-22T05:18:41;15.00;99.90
22765;DHT22;11549;50.852;3.816;2022-10-22T05:21:11;15.10;99.90
22765;DHT22;11549;50.852;3.816;2022-10-22T05:23:40;15.10;99.90
22765;DHT22;11549;50.852;3.816;2022-10-22T05:26:09;15.10;99.90
22765;DHT22;11549;50.852;3.816;2022-10-22T05:28:39;15.10;99.90
22765;DHT22;11549;50.852;3.816;2022-10-22T05:31:11;15.10;99.90
22765;DHT22;11549;50.852;3.816;2022-10-22T05:33:40;15.10;99.90
22765;DHT22;11549;50.852;3.816;2022-10-22T05:36:12;15.10;99.90
22765;DHT22;11549;50.852;3.816;2022-10-22T05:38:40;15.10;99.90
22765;DHT22;11549;50.852;3.816;2022-10-22T05:41:10;15.10;99.90
22765;DHT22;11549;50.852;3.816;2022-10-22T05:43:39;15.20;99.90
22765;DHT22;11549;50.852;3.816;2022-10-22T05:46:11;15.20;99.90
22765;DHT22;11549;50.852;3.816;2022-10-22T05:48:48;15.20;99.90
22765;DHT22;11549;50.852;3.816;2022-10-22T05:51:17;15.20;99.90
22765;DHT22;11549;50.852;3.816;2022-10-22T05:53:49;15.10;99.90
22765;DHT22;11549;50.852;3.816;2022-10-22T05:56:18;15.20;99.90
22765;DHT22;11549;50.852;3.816;2022-10-22T05:58:46;15.20;99.90
22765;DHT22;11549;50.852;3.816;2022-10-22T06:01:18;15.20;99.90
22765;DHT22;11549;50.852;3.816;2022-10-22T06:03:47;15.30;99.90
22765;DHT22;11549;50.852;3.816;2022-10-22T06:06:19;15.20;99.90
22765;DHT22;11549;50.852;3.816;2022-10-22T06:08:49;15.20;99.90
22765;DHT22;11549;50.852;3.816;2022-10-22T06:11:20;15.10;99.90
22765;DHT22;11549;50.852;3.816;2022-10-22T06:13:49;15.20;99.90
22765;DHT22;11549;50.852;3.816;2022-10-22T06:16:19;15.20;99.90
22765;DHT22;11549;50.852;3.816;2022-10-22T06:18:47;15.30;99.90
22765;DHT22;11549;50.852;3.816;2022-10-22T06:21:16;15.30;99.90
22765;DHT22;11549;50.852;3.816;2022-10-22T06:23:44;15.30;99.90
22765;DHT22;11549;50.852;3.816;2022-10-22T06:26:12;15.20;99.90
22765;DHT22;11549;50.852;3.816;2022-10-22T06:28:41;15.30;99.90
22765;DHT22;11549;50.852;3.816;2022-10-22T06:31:10;15.30;99.90
22765;DHT22;11549;50.852;3.816;2022-10-22T06:33:39;15.30;99.90
22765;DHT22;11549;50.852;3.816;2022-10-22T06:36:11;15.40;99.90
22765;DHT22;11549;50.852;3.816;2022-10-22T06:38:39;15.40;99.90
22765;DHT22;11549;50.852;3.816;2022-10-22T06:41:09;15.50;99.90
22765;DHT22;11549;50.852;3.816;2022-10-22T06:43:39;15.50;99.90
22765;DHT22;11549;50.852;3.816;2022-10-22T06:46:08;15.50;99.90
22765;DHT22;11549;50.852;3.816;2022-10-22T06:48:48;15.60;99.90
22765;DHT22;11549;50.852;3.816;2022-10-22T06:51:17;15.50;99.90
22765;DHT22;11549;50.852;3.816;2022-10-22T06:53:46;15.40;99.90
22765;DHT22;11549;50.852;3.816;2022-10-22T06:56:17;15.50;99.90
22765;DHT22;11549;50.852;3.816;2022-10-22T06:58:46;15.50;99.90
22765;DHT22;11549;50.852;3.816;2022-10-22T07:01:15;15.40;99.90
22765;DHT22;11549;50.852;3.816;2022-10-22T07:03:46;15.40;99.90
22765;DHT22;11549;50.852;3.816;2022-10-22T07:06:14;15.30;99.90
22765;DHT22;11549;50.852;3.816;2022-10-22T07:08:42;15.30;99.90
22765;DHT22;11549;50.852;3.816;2022-10-22T07:11:13;15.30;99.90
22765;DHT22;11549;50.852;3.816;2022-10-22T07:13:42;15.30;99.90
22765;DHT22;11549;50.852;3.816;2022-10-22T07:16:11;15.50;99.90
22765;DHT22;11549;50.852;3.816;2022-10-22T07:18:40;15.70;99.90
22765;DHT22;11549;50.852;3.816;2022-10-22T07:21:11;16.10;99.90
22765;DHT22;11549;50.852;3.816;2022-10-22T07:23:40;16.70;99.90
22765;DHT22;11549;50.852;3.816;2022-10-22T07:26:09;16.90;99.90
22765;DHT22;11549;50.852;3.816;2022-10-22T07:28:39;16.90;99.90
22765;DHT22;11549;50.852;3.816;2022-10-22T07:31:10;16.80;99.90
22765;DHT22;11549;50.852;3.816;2022-10-22T07:33:39;16.60;99.90
22765;DHT22;11549;50.852;3.816;2022-10-22T07:36:11;16.60;99.90
22765;DHT22;11549;50.852;3.816;2022-10-22T07:38:43;16.40;99.90
22765;DHT22;11549;50.852;3.816;2022-10-22T07:41:13;16.20;99.90
22765;DHT22;11549;50.852;3.816;2022-10-22T07:43:41;16.20;99.90
22765;DHT22;11549;50.852;3.816;2022-10-22T07:46:10;16.20;99.90
22765;DHT22;11549;50.852;3.816;2022-10-22T07:48:38;16.20;99.90
22765;DHT22;11549;50.852;3.816;2022-10-22T07:51:07;16.20;99.90
22765;DHT22;11549;50.852;3.816;2022-10-22T07:53:36;16.30;99.90
22765;DHT22;11549;50.852;3.816;2022-10-22T07:56:05;16.40;99.90
22765;DHT22;11549;50.852;3.816;2022-10-22T07:58:34;16.60;99.90
22765;DHT22;11549;50.852;3.816;2022-10-22T08:01:02;16.60;99.90
22765;DHT22;11549;50.852;3.816;2022-10-22T08:03:33;16.70;99.90
22765;DHT22;11549;50.852;3.816;2022-10-22T08:06:02;16.70;99.90
22765;DHT22;11549;50.852;3.816;2022-10-22T08:08:30;16.80;99.90
22765;DHT22;11549;50.852;3.816;2022-10-22T08:11:01;16.90;99.90
22765;DHT22;11549;50.852;3.816;2022-10-22T08:13:29;16.90;99.90
22765;DHT22;11549;50.852;3.816;2022-10-22T08:15:58;16.90;99.90
22765;DHT22;11549;50.852;3.816;2022-10-22T08:18:28;17.00;99.90
22765;DHT22;11549;50.852;3.816;2022-10-22T08:20:56;17.10;99.90
22765;DHT22;11549;50.852;3.816;2022-10-22T08:23:25;17.00;99.90
22765;DHT22;11549;50.852;3.816;2022-10-22T08:25:55;17.00;99.90
22765;DHT22;11549;50.852;3.816;2022-10-22T08:28:25;17.20;99.90
22765;DHT22;11549;50.852;3.816;2022-10-22T08:30:55;17.40;99.90
22765;DHT22;11549;50.852;3.816;2022-10-22T08:33:24;17.80;99.90
22765;DHT22;11549;50.852;3.816;2022-10-22T08:35:52;18.20;99.90
22765;DHT22;11549;50.852;3.816;2022-10-22T08:38:21;18.70;99.90
22765;DHT22;11549;50.852;3.816;2022-10-22T08:40:51;19.10;99.90
22765;DHT22;11549;50.852;3.816;2022-10-22T08:43:40;19.60;99.90
22765;DHT22;11549;50.852;3.816;2022-10-22T08:46:43;20.00;99.90
22765;DHT22;11549;50.852;3.816;2022-10-22T08:49:19;20.50;99.90
22765;DHT22;11549;50.852;3.816;2022-10-22T08:51:48;21.10;99.90
22765;DHT22;11549;50.852;3.816;2022-10-22T08:54:24;21.50;99.90
22765;DHT22;11549;50.852;3.816;2022-10-22T08:57:03;21.50;99.90
22765;DHT22;11549;50.852;3.816;2022-10-22T08:59:45;21.70;99.90
22765;DHT22;11549;50.852;3.816;2022-10-22T09:02:26;21.70;99.90
22765;DHT22;11549;50.852;3.816;2022-10-22T09:05:03;21.40;99.90
22765;DHT22;11549;50.852;3.816;2022-10-22T09:07:42;21.10;99.90
22765;DHT22;11549;50.852;3.816;2022-10-22T09:10:17;20.90;99.90
22765;DHT22;11549;50.852;3.816;2022-10-22T09:12:47;20.60;99.90
22765;DHT22;11549;50.852;3.816;2022-10-22T09:15:18;20.50;99.90
22765;DHT22;11549;50.852;3.816;2022-10-22T09:18:00;20.50;99.90
22765;DHT22;11549;50.852;3.816;2022-10-22T09:20:37;20.50;99.90
22765;DHT22;11549;50.852;3.816;2022-10-22T09:23:23;20.40;99.90
22765;DHT22;11549;50.852;3.816;2022-10-22T09:25:56;20.40;99.90
22765;DHT22;11549;50.852;3.816;2022-10-22T09:28:24;20.50;99.90
22765;DHT22;11549;50.852;3.816;2022-10-22T09:30:54;20.60;99.90
22765;DHT22;11549;50.852;3.816;2022-10-22T09:33:29;20.70;99.90
22765;DHT22;11549;50.852;3.816;2022-10-22T09:36:00;20.80;99.90
22765;DHT22;11549;50.852;3.816;2022-10-22T09:38:31;20.90;99.90
22765;DHT22;11549;50.852;3.816;2022-10-22T09:41:00;21.00;99.90
22765;DHT22;11549;50.852;3.816;2022-10-22T09:43:30;21.20;99.90
22765;DHT22;11549;50.852;3.816;2022-10-22T09:46:03;21.30;99.90
22765;DHT22;11549;50.852;3.816;2022-10-22T09:48:34;21.20;99.90
22765;DHT22;11549;50.852;3.816;2022-10-22T09:51:07;21.30;99.90
22765;DHT22;11549;50.852;3.816;2022-10-22T09:53:42;21.20;99.90
22765;DHT22;11549;50.852;3.816;2022-10-22T09:56:17;21.30;99.90
22765;DHT22;11549;50.852;3.816;2022-10-22T09:58:49;21.40;99.90
22765;DHT22;11549;50.852;3.816;2022-10-22T10:01:22;21.30;99.90
22765;DHT22;11549;50.852;3.816;2022-10-22T10:03:51;20.90;99.90
22765;DHT22;11549;50.852;3.816;2022-10-22T10:06:21;20.50;99.90
22765;DHT22;11549;50.852;3.816;2022-10-22T10:08:50;20.60;99.90
22765;DHT22;11549;50.852;3.816;2022-10-22T10:11:25;20.90;99.90
22765;DHT22;11549;50.852;3.816;2022-10-22T10:14:03;21.30;99.90
22765;DHT22;11549;50.852;3.816;2022-10-22T10:16:44;21.60;99.90
22765;DHT22;11549;50.852;3.816;2022-10-22T10:22:13;22.20;99.90
22765;DHT22;11549;50.852;3.816;2022-10-22T10:24:56;22.60;99.90
22765;DHT22;11549;50.852;3.816;2022-10-22T10:27:30;22.80;99.90
22765;DHT22;11549;50.852;3.816;2022-10-22T10:30:07;22.90;99.90
22765;DHT22;11549;50.852;3.816;2022-10-22T10:33:00;23.00;99.90
22765;DHT22;11549;50.852;3.816;2022-10-22T10:35:36;23.00;99.90
22765;DHT22;11549;50.852;3.816;2022-10-22T10:38:17;22.90;99.90
22765;DHT22;11549;50.852;3.816;2022-10-22T10:40:58;22.90;99.90
22765;DHT22;11549;50.852;3.816;2022-10-22T10:43:35;22.70;99.90
22765;DHT22;11549;50.852;3.816;2022-10-22T10:46:11;22.70;99.90
22765;DHT22;11549;50.852;3.816;2022-10-22T10:48:53;22.90;99.90
22765;DHT22;11549;50.852;3.816;2022-10-22T10:51:38;22.90;99.90
22765;DHT22;11549;50.852;3.816;2022-10-22T10:54:24;22.70;99.90
22765;DHT22;11549;50.852;3.816;2022-10-22T10:56:56;22.70;99.90
22765;DHT22;11549;50.852;3.816;2022-10-22T10:59:36;23.00;99.90
22765;DHT22;11549;50.852;3.816;2022-10-22T11:02:30;23.30;99.90
22765;DHT22;11549;50.852;3.816;2022-10-22T11:05:19;23.70;99.90
22765;DHT22;11549;50.852;3.816;2022-10-22T11:07:53;23.70;99.90
22765;DHT22;11549;50.852;3.816;2022-10-22T11:10:28;23.50;99.90
22765;DHT22;11549;50.852;3.816;2022-10-22T11:13:02;23.70;99.90
22765;DHT22;11549;50.852;3.816;2022-10-22T11:15:34;23.70;99.90
22765;DHT22;11549;50.852;3.816;2022-10-22T11:18:11;23.60;99.90
22765;DHT22;11549;50.852;3.816;2022-10-22T11:20:52;23.70;99.90
22765;DHT22;11549;50.852;3.816;2022-10-22T11:23:28;23.50;99.90
22765;DHT22;11549;50.852;3.816;2022-10-22T11:30:33;23.50;99.90
22765;DHT22;11549;50.852;3.816;2022-10-22T11:33:05;23.40;99.90
22765;DHT22;11549;50.852;3.816;2022-10-22T11:35:36;23.20;99.90
